Temp: 7.9°C   Baro: 1005.4mb
  Wind: 4.0mph   Dir: W (273°)
  Rain: 0.8mm (0.0mm/hr)
  Sun: 0W/m2  Humidity: 94%

Historic data

Bath Spa Weather Station Historical Data
Daily Summary for October 23, 2022 Units:  Both    English   Metric
Daily Weekly Monthly Yearly Custom
  High: Low: Average:
Temperature: 65.5 °F /  18.6 °C 53.1 °F /  11.7 °C 58.1 °F /  14.5 °C
Dew Point: 58.8 °F /  14.9 °C 51.4 °F /  10.8 °C 55.1 °F /  12.8 °C
Humidity: 96% 72% 90%
Wind Speed: 9.4mph /  15.1km/h - 3mph /  4.8km/h
Wind Gust: 17mph /  27.4km/h - -
Wind- - ESE
Pressure: 29.78 in /  1008.4 hPa 29.34 in /  993.5 hPa -
Precipitation: 1.04 in /  26.42 mm    
Historical Graphs
 
 
Tabular Data for October 23, 2022
Time Temperature Dew Point Pressure Wind Wind Speed Wind Gust Humidity Rainfall Rate (Hourly) solar
00:09 57.7 °F /  14.3 °C 55.9 °F /  13.3 °C 29.78in /  1008.4hPa East 2.7mph /  4.3km/h 7mph /  11.3km/h 94% 0.00in /  0mm 0 W/m2
00:14 57.6 °F /  14.2 °C 55.8 °F /  13.2 °C 29.77in /  1008hPa East 2.9mph /  4.7km/h 7mph /  11.3km/h 94% 0.00in /  0mm 0 W/m2
00:19 57.6 °F /  14.2 °C 55.8 °F /  13.2 °C 29.77in /  1008hPa East 2.1mph /  3.4km/h 7mph /  11.3km/h 94% 0.00in /  0mm 0 W/m2
00:24 57.6 °F /  14.2 °C 55.8 °F /  13.2 °C 29.77in /  1008hPa East 3mph /  4.8km/h 7mph /  11.3km/h 94% 0.00in /  0mm 0 W/m2
00:29 57.6 °F /  14.2 °C 55.8 °F /  13.2 °C 29.77in /  1008hPa East 3mph /  4.8km/h 7mph /  11.3km/h 94% 0.00in /  0mm 0 W/m2
00:33 57.6 °F /  14.2 °C 55.8 °F /  13.2 °C 29.76in /  1007.7hPa East 3.2mph /  5.1km/h 9mph /  14.5km/h 94% 0.00in /  0mm 0 W/m2
00:39 57.6 °F /  14.2 °C 55.8 °F /  13.2 °C 29.76in /  1007.7hPa East 3.3mph /  5.3km/h 9mph /  14.5km/h 94% 0.00in /  0mm 0 W/m2
00:44 57.6 °F /  14.2 °C 55.8 °F /  13.2 °C 29.75in /  1007.3hPa East 2.8mph /  4.5km/h 8mph /  12.9km/h 94% 0.00in /  0mm 0 W/m2
00:49 57.6 °F /  14.2 °C 55.8 °F /  13.2 °C 29.75in /  1007.3hPa ESE 2.8mph /  4.5km/h 7mph /  11.3km/h 94% 0.00in /  0mm 0 W/m2
00:54 57.5 °F /  14.2 °C 55.7 °F /  13.2 °C 29.75in /  1007.3hPa ESE 2.5mph /  4km/h 5mph /  8km/h 94% 0.00in /  0mm 0 W/m2
00:59 57.6 °F /  14.2 °C 55.8 °F /  13.2 °C 29.75in /  1007.3hPa SE 3.7mph /  6km/h 7mph /  11.3km/h 94% 0.00in /  0mm 0 W/m2
01:04 57.6 °F /  14.2 °C 55.8 °F /  13.2 °C 29.75in /  1007.3hPa ESE 3.3mph /  5.3km/h 9mph /  14.5km/h 94% 0.00in /  0mm 0 W/m2
01:09 57.6 °F /  14.2 °C 55.8 °F /  13.2 °C 29.74in /  1007hPa ESE 3.3mph /  5.3km/h 8mph /  12.9km/h 94% 0.00in /  0mm 0 W/m2
01:14 57.7 °F /  14.3 °C 55.9 °F /  13.3 °C 29.74in /  1007hPa ESE 4.4mph /  7.1km/h 9mph /  14.5km/h 94% 0.00in /  0mm 0 W/m2
01:19 57.7 °F /  14.3 °C 55.9 °F /  13.3 °C 29.74in /  1007hPa SE 2.7mph /  4.3km/h 9mph /  14.5km/h 94% 0.00in /  0mm 0 W/m2
01:24 57.7 °F /  14.3 °C 55.9 °F /  13.3 °C 29.74in /  1007hPa ESE 3.7mph /  6km/h 7mph /  11.3km/h 94% 0.00in /  0mm 0 W/m2
01:29 57.8 °F /  14.3 °C 56 °F /  13.3 °C 29.73in /  1006.7hPa ESE 2.9mph /  4.7km/h 7mph /  11.3km/h 94% 0.00in /  0mm 0 W/m2
01:34 57.9 °F /  14.4 °C 56.1 °F /  13.4 °C 29.73in /  1006.7hPa ESE 3.7mph /  6km/h 7mph /  11.3km/h 94% 0.00in /  0mm 0 W/m2
01:39 57.9 °F /  14.4 °C 56.1 °F /  13.4 °C 29.73in /  1006.7hPa ESE 3.2mph /  5.1km/h 8mph /  12.9km/h 94% 0.00in /  0mm 0 W/m2
01:44 57.9 °F /  14.4 °C 56.1 °F /  13.4 °C 29.73in /  1006.7hPa East 4.1mph /  6.6km/h 9mph /  14.5km/h 94% 0.00in /  0mm 0 W/m2
01:49 57.9 °F /  14.4 °C 56.1 °F /  13.4 °C 29.73in /  1006.7hPa SE 5.5mph /  8.9km/h 8mph /  12.9km/h 94% 0.00in /  0mm 0 W/m2
01:54 57.8 °F /  14.3 °C 56 °F /  13.3 °C 29.72in /  1006.3hPa ESE 3.9mph /  6.3km/h 8mph /  12.9km/h 94% 0.00in /  0mm 0 W/m2
01:59 57.7 °F /  14.3 °C 55.9 °F /  13.3 °C 29.72in /  1006.3hPa ESE 3.4mph /  5.5km/h 8mph /  12.9km/h 94% 0.00in /  0mm 0 W/m2
02:04 57.9 °F /  14.4 °C 56.1 °F /  13.4 °C 29.72in /  1006.3hPa ESE 3.6mph /  5.8km/h 9mph /  14.5km/h 94% 0.00in /  0mm 0 W/m2
02:09 57.9 °F /  14.4 °C 56.1 °F /  13.4 °C 29.72in /  1006.3hPa East 4.4mph /  7.1km/h 12mph /  19.3km/h 94% 0.00in /  0mm 0 W/m2
02:14 57.9 °F /  14.4 °C 56.1 °F /  13.4 °C 29.71in /  1006hPa ESE 4.1mph /  6.6km/h 12mph /  19.3km/h 94% 0.00in /  0mm 0 W/m2
02:19 57.9 °F /  14.4 °C 56.1 °F /  13.4 °C 29.71in /  1006hPa ESE 5.1mph /  8.2km/h 9mph /  14.5km/h 94% 0.00in /  0mm 0 W/m2
02:24 57.9 °F /  14.4 °C 56.1 °F /  13.4 °C 29.70in /  1005.6hPa East 5.2mph /  8.4km/h 8mph /  12.9km/h 94% 0.00in /  0mm 0 W/m2
02:29 57.9 °F /  14.4 °C 56.1 °F /  13.4 °C 29.70in /  1005.6hPa East 4.1mph /  6.6km/h 8mph /  12.9km/h 94% 0.00in /  0mm 0 W/m2
02:34 57.9 °F /  14.4 °C 56.1 °F /  13.4 °C 29.70in /  1005.6hPa East 2.9mph /  4.7km/h 8mph /  12.9km/h 94% 0.00in /  0mm 0 W/m2
02:39 57.9 °F /  14.4 °C 56.1 °F /  13.4 °C 29.70in /  1005.6hPa ESE 3.2mph /  5.1km/h 8mph /  12.9km/h 94% 0.00in /  0mm 0 W/m2
02:44 57.9 °F /  14.4 °C 56.1 °F /  13.4 °C 29.70in /  1005.6hPa ESE 2.2mph /  3.5km/h 6mph /  9.7km/h 94% 0.00in /  0mm 0 W/m2
02:49 57.9 °F /  14.4 °C 56.1 °F /  13.4 °C 29.70in /  1005.6hPa ESE 2.3mph /  3.7km/h 5mph /  8km/h 94% 0.00in /  0mm 0 W/m2
02:54 57.9 °F /  14.4 °C 56.1 °F /  13.4 °C 29.70in /  1005.6hPa ESE 2.9mph /  4.7km/h 8mph /  12.9km/h 94% 0.00in /  0mm 0 W/m2
02:59 57.9 °F /  14.4 °C 56.1 °F /  13.4 °C 29.69in /  1005.3hPa East 3mph /  4.8km/h 7mph /  11.3km/h 94% 0.00in /  0mm 0 W/m2
03:04 57.9 °F /  14.4 °C 56.1 °F /  13.4 °C 29.69in /  1005.3hPa East 4.9mph /  7.9km/h 7mph /  11.3km/h 94% 0.00in /  0mm 0 W/m2
03:09 57.9 °F /  14.4 °C 56.1 °F /  13.4 °C 29.67in /  1004.6hPa ENE 2.3mph /  3.7km/h 7mph /  11.3km/h 94% 0.00in /  0mm 0 W/m2
03:14 57.9 °F /  14.4 °C 56.1 °F /  13.4 °C 29.66in /  1004.3hPa East 2.8mph /  4.5km/h 9mph /  14.5km/h 94% 0.00in /  0mm 0 W/m2
03:19 57.9 °F /  14.4 °C 56.1 °F /  13.4 °C 29.66in /  1004.3hPa East 2.4mph /  3.9km/h 7mph /  11.3km/h 94% 0.00in /  0mm 0 W/m2
03:24 57.9 °F /  14.4 °C 56.1 °F /  13.4 °C 29.66in /  1004.3hPa ESE 4.4mph /  7.1km/h 9mph /  14.5km/h 94% 0.00in /  0mm 0 W/m2
03:29 57.9 °F /  14.4 °C 56.1 °F /  13.4 °C 29.66in /  1004.3hPa East 3.5mph /  5.6km/h 9mph /  14.5km/h 94% 0.00in /  0mm 0 W/m2
03:34 57.9 °F /  14.4 °C 56.1 °F /  13.4 °C 29.66in /  1004.3hPa East 2.9mph /  4.7km/h 9mph /  14.5km/h 94% 0.00in /  0mm 0 W/m2
03:39 57.9 °F /  14.4 °C 56.1 °F /  13.4 °C 29.65in /  1003.9hPa East 3.7mph /  6km/h 9mph /  14.5km/h 94% 0.00in /  0mm 0 W/m2
03:44 57.9 °F /  14.4 °C 56.1 °F /  13.4 °C 29.65in /  1003.9hPa ESE 4.5mph /  7.2km/h 9mph /  14.5km/h 94% 0.00in /  0mm 0 W/m2
03:49 58.1 °F /  14.5 °C 56.3 °F /  13.5 °C 29.65in /  1003.9hPa East 4.4mph /  7.1km/h 10mph /  16.1km/h 94% 0.00in /  0mm 0 W/m2
03:54 58.1 °F /  14.5 °C 56.3 °F /  13.5 °C 29.65in /  1003.9hPa East 4.1mph /  6.6km/h 8mph /  12.9km/h 94% 0.00in /  0mm 0 W/m2
03:59 58.1 °F /  14.5 °C 56.3 °F /  13.5 °C 29.64in /  1003.6hPa ESE 4.4mph /  7.1km/h 11mph /  17.7km/h 94% 0.00in /  0mm 0 W/m2
04:04 58.1 °F /  14.5 °C 56.3 °F /  13.5 °C 29.64in /  1003.6hPa ESE 4.5mph /  7.2km/h 11mph /  17.7km/h 94% 0.00in /  0mm 0 W/m2
04:09 58.3 °F /  14.6 °C 56.5 °F /  13.6 °C 29.63in /  1003.3hPa ESE 4mph /  6.4km/h 11mph /  17.7km/h 94% 0.00in /  0mm 0 W/m2
04:14 58.3 °F /  14.6 °C 56.5 °F /  13.6 °C 29.63in /  1003.3hPa ESE 5.3mph /  8.5km/h 11mph /  17.7km/h 94% 0.00in /  0mm 0 W/m2
04:19 58.3 °F /  14.6 °C 56.5 °F /  13.6 °C 29.62in /  1002.9hPa ESE 5.3mph /  8.5km/h 12mph /  19.3km/h 94% 0.00in /  0mm 0 W/m2
04:24 58.3 °F /  14.6 °C 56.5 °F /  13.6 °C 29.62in /  1002.9hPa ESE 3.3mph /  5.3km/h 12mph /  19.3km/h 94% 0.00in /  0mm 0 W/m2
04:29 58.3 °F /  14.6 °C 56.5 °F /  13.6 °C 29.62in /  1002.9hPa ESE 4mph /  6.4km/h 10mph /  16.1km/h 94% 0.00in /  0mm 0 W/m2
04:34 58.3 °F /  14.6 °C 56.5 °F /  13.6 °C 29.61in /  1002.6hPa East 3.7mph /  6km/h 9mph /  14.5km/h 94% 0.00in /  0mm 0 W/m2
04:39 58.3 °F /  14.6 °C 56.5 °F /  13.6 °C 29.61in /  1002.6hPa ESE 5.8mph /  9.3km/h 11mph /  17.7km/h 94% 0.00in /  0mm 0 W/m2
04:44 58.4 °F /  14.7 °C 56.6 °F /  13.7 °C 29.60in /  1002.3hPa East 5mph /  8km/h 13mph /  20.9km/h 94% 0.00in /  0mm 0 W/m2
04:48 58.5 °F /  14.7 °C 56.7 °F /  13.7 °C 29.59in /  1001.9hPa ESE 7mph /  11.3km/h 16mph /  25.7km/h 94% 0.00in /  0mm 0 W/m2
04:54 58.5 °F /  14.7 °C 56.7 °F /  13.7 °C 29.59in /  1001.9hPa SE 3.7mph /  6km/h 9mph /  14.5km/h 94% 0.01in /  0.25mm 0 W/m2
04:59 58.5 °F /  14.7 °C 56.7 °F /  13.7 °C 29.61in /  1002.6hPa SSE 3.4mph /  5.5km/h 7mph /  11.3km/h 94% 0.01in /  0.25mm 0 W/m2
05:04 58.6 °F /  14.8 °C 56.8 °F /  13.8 °C 29.64in /  1003.6hPa South 3.6mph /  5.8km/h 8mph /  12.9km/h 94% 0.03in /  0.76mm 0 W/m2
05:09 58.5 °F /  14.7 °C 56.7 °F /  13.7 °C 29.64in /  1003.6hPa SSE 3.2mph /  5.1km/h 8mph /  12.9km/h 94% 0.11in /  2.79mm 0 W/m2
05:14 58.3 °F /  14.6 °C 56.5 °F /  13.6 °C 29.63in /  1003.3hPa ESE 4.4mph /  7.1km/h 8mph /  12.9km/h 94% 0.17in /  4.32mm 0 W/m2
05:19 58.3 °F /  14.6 °C 56.5 °F /  13.6 °C 29.63in /  1003.3hPa ESE 1.6mph /  2.6km/h 5mph /  8km/h 94% 0.22in /  5.59mm 0 W/m2
05:24 58.1 °F /  14.5 °C 56.3 °F /  13.5 °C 29.62in /  1002.9hPa East 2.9mph /  4.7km/h 6mph /  9.7km/h 94% 0.27in /  6.86mm 0 W/m2
05:29 58.1 °F /  14.5 °C 56.3 °F /  13.5 °C 29.62in /  1002.9hPa East 1.7mph /  2.7km/h 4mph /  6.4km/h 94% 0.30in /  7.62mm 0 W/m2
05:34 58 °F /  14.4 °C 56.2 °F /  13.4 °C 29.61in /  1002.6hPa East 1.2mph /  1.9km/h 5mph /  8km/h 94% 0.33in /  8.38mm 0 W/m2
05:39 57.9 °F /  14.4 °C 56.1 °F /  13.4 °C 29.61in /  1002.6hPa East 2mph /  3.2km/h 8mph /  12.9km/h 94% 0.35in /  8.89mm 0 W/m2
05:44 57.9 °F /  14.4 °C 56.1 °F /  13.4 °C 29.61in /  1002.6hPa ESE 2.9mph /  4.7km/h 7mph /  11.3km/h 94% 0.37in /  9.4mm 0 W/m2
05:49 57.9 °F /  14.4 °C 56.1 °F /  13.4 °C 29.61in /  1002.6hPa ESE 2mph /  3.2km/h 7mph /  11.3km/h 94% 0.39in /  9.91mm 0 W/m2
05:54 57.9 °F /  14.4 °C 56.1 °F /  13.4 °C 29.60in /  1002.3hPa ENE 1.8mph /  2.9km/h 5mph /  8km/h 94% 0.39in /  9.91mm 0 W/m2
05:59 57.9 °F /  14.4 °C 56.1 °F /  13.4 °C 29.61in /  1002.6hPa East 1.2mph /  1.9km/h 6mph /  9.7km/h 94% 0.41in /  10.41mm 0 W/m2
06:04 57.9 °F /  14.4 °C 56.1 °F /  13.4 °C 29.61in /  1002.6hPa East 0.2mph /  0.3km/h 2mph /  3.2km/h 94% 0.42in /  10.67mm 0 W/m2
06:09 57.9 °F /  14.4 °C 56.1 °F /  13.4 °C 29.61in /  1002.6hPa East 0.2mph /  0.3km/h 2mph /  3.2km/h 94% 0.38in /  9.65mm 0 W/m2
06:14 57.9 °F /  14.4 °C 56.1 °F /  13.4 °C 29.61in /  1002.6hPa East 1.1mph /  1.8km/h 3mph /  4.8km/h 94% 0.31in /  7.87mm 0 W/m2
06:19 57.9 °F /  14.4 °C 56.1 °F /  13.4 °C 29.60in /  1002.3hPa East 0.4mph /  0.6km/h 2mph /  3.2km/h 94% 0.26in /  6.6mm 0 W/m2
06:24 57.9 °F /  14.4 °C 56.1 °F /  13.4 °C 29.60in /  1002.3hPa Calm     94% 0.21in /  5.33mm 0 W/m2
06:29 57.9 °F /  14.4 °C 56.1 °F /  13.4 °C 29.60in /  1002.3hPa Calm     94% 0.17in /  4.32mm 0 W/m2
06:34 57.9 °F /  14.4 °C 56.1 °F /  13.4 °C 29.60in /  1002.3hPa Calm     94% 0.14in /  3.56mm 0 W/m2
06:39 57.7 °F /  14.3 °C 56 °F /  13.3 °C 29.61in /  1002.6hPa East 1mph /  1.6km/h 5mph /  8km/h 94.2% 0.12in /  3.05mm 0 W/m2
06:44 57.7 °F /  14.3 °C 56.3 °F /  13.5 °C 29.63in /  1003.3hPa South 3.9mph /  6.3km/h 6mph /  9.7km/h 95% 0.10in /  2.54mm 0 W/m2
06:49 57.7 °F /  14.3 °C 56.3 °F /  13.5 °C 29.64in /  1003.6hPa SSW 3.2mph /  5.1km/h 7mph /  11.3km/h 95% 0.09in /  2.29mm 0 W/m2
06:54 57.7 °F /  14.3 °C 56.3 °F /  13.5 °C 29.62in /  1002.9hPa SE 3.4mph /  5.5km/h 6mph /  9.7km/h 95% 0.09in /  2.29mm 0 W/m2
06:59 57.5 °F /  14.2 °C 56 °F /  13.3 °C 29.60in /  1002.3hPa NE 3.3mph /  5.3km/h 6mph /  9.7km/h 94.8% 0.09in /  2.29mm 0 W/m2
07:04 57 °F /  13.9 °C 55.6 °F /  13.1 °C 29.58in /  1001.6hPa NW 0.9mph /  1.4km/h 6mph /  9.7km/h 95% 0.09in /  2.29mm 0 W/m2
07:09 56.8 °F /  13.8 °C 55.3 °F /  12.9 °C 29.58in /  1001.6hPa WSW 1.2mph /  1.9km/h 4mph /  6.4km/h 94.2% 0.10in /  2.54mm 0 W/m2
07:14 56.8 °F /  13.8 °C 55.1 °F /  12.8 °C 29.59in /  1001.9hPa SW 0.6mph /  1km/h 3mph /  4.8km/h 94% 0.10in /  2.54mm 0 W/m2
07:19 56.8 °F /  13.8 °C 55.4 °F /  13 °C 29.59in /  1001.9hPa SW 0.9mph /  1.4km/h 2mph /  3.2km/h 95% 0.12in /  3.05mm 0 W/m2
07:24 56.8 °F /  13.8 °C 55.4 °F /  13 °C 29.59in /  1001.9hPa SW 1.6mph /  2.6km/h 3mph /  4.8km/h 95% 0.12in /  3.05mm 0 W/m2
07:29 56.8 °F /  13.8 °C 55.4 °F /  13 °C 29.60in /  1002.3hPa SW 1.6mph /  2.6km/h 3mph /  4.8km/h 95% 0.13in /  3.3mm 0 W/m2
07:34 56.8 °F /  13.8 °C 55.4 °F /  13 °C 29.62in /  1002.9hPa South 2.5mph /  4km/h 5mph /  8km/h 95% 0.14in /  3.56mm 0 W/m2
07:39 56.9 °F /  13.8 °C 55.5 °F /  13.1 °C 29.62in /  1002.9hPa SSE 1.5mph /  2.4km/h 5mph /  8km/h 95% 0.15in /  3.81mm 0 W/m2
07:44 56.8 °F /  13.8 °C 55.4 °F /  13 °C 29.62in /  1002.9hPa SE 2.4mph /  3.9km/h 4mph /  6.4km/h 95% 0.15in /  3.81mm 0 W/m2
07:49 56.8 °F /  13.8 °C 55.4 °F /  13 °C 29.61in /  1002.6hPa ESE 2.9mph /  4.7km/h 9mph /  14.5km/h 95% 0.14in /  3.56mm 0 W/m2
07:54 56.8 °F /  13.8 °C 55.4 °F /  13 °C 29.60in /  1002.3hPa ENE 3.7mph /  6km/h 8mph /  12.9km/h 95% 0.14in /  3.56mm 0 W/m2
07:59 56.7 °F /  13.7 °C 55.3 °F /  12.9 °C 29.57in /  1001.2hPa NE 5.9mph /  9.5km/h 16mph /  25.7km/h 95% 0.13in /  3.3mm 0 W/m2
08:04 56.7 °F /  13.7 °C 55.2 °F /  12.9 °C 29.54in /  1000.2hPa NE 5mph /  8km/h 16mph /  25.7km/h 95% 0.13in /  3.3mm 0 W/m2
08:09 56.5 °F /  13.6 °C 55 °F /  12.8 °C 29.54in /  1000.2hPa NE 3.2mph /  5.1km/h 11mph /  17.7km/h 95% 0.13in /  3.3mm 0 W/m2
08:14 56.5 °F /  13.6 °C 55 °F /  12.8 °C 29.55in /  1000.6hPa NE 0.9mph /  1.4km/h 5mph /  8km/h 95% 0.12in /  3.05mm 7 W/m2
08:19 56.3 °F /  13.5 °C 54.9 °F /  12.7 °C 29.54in /  1000.2hPa NE 0.4mph /  0.6km/h 2mph /  3.2km/h 95% 0.12in /  3.05mm 16 W/m2
08:24 56.3 °F /  13.5 °C 54.9 °F /  12.7 °C 29.54in /  1000.2hPa Calm     95% 0.11in /  2.79mm 33 W/m2
08:29 56.2 °F /  13.4 °C 54.8 °F /  12.7 °C 29.54in /  1000.2hPa Calm     95% 0.11in /  2.79mm 49 W/m2
08:34 56.2 °F /  13.4 °C 54.8 °F /  12.7 °C 29.54in /  1000.2hPa Calm     95% 0.10in /  2.54mm 49 W/m2
08:39 56.3 °F /  13.5 °C 54.9 °F /  12.7 °C 29.54in /  1000.2hPa NE 0.6mph /  1km/h 4mph /  6.4km/h 95% 0.10in /  2.54mm 40 W/m2
08:44 56.3 °F /  13.5 °C 54.9 °F /  12.7 °C 29.54in /  1000.2hPa East 1.9mph /  3.1km/h 4mph /  6.4km/h 95% 0.10in /  2.54mm 26 W/m2
08:49 56.5 °F /  13.6 °C 55 °F /  12.8 °C 29.54in /  1000.2hPa East 1.2mph /  1.9km/h 3mph /  4.8km/h 95% 0.10in /  2.54mm 23 W/m2
08:54 56.3 °F /  13.5 °C 54.9 °F /  12.7 °C 29.54in /  1000.2hPa ESE 2.3mph /  3.7km/h 4mph /  6.4km/h 95% 0.09in /  2.29mm 25 W/m2
08:59 56.1 °F /  13.4 °C 54.7 °F /  12.6 °C 29.54in /  1000.2hPa SE 2.1mph /  3.4km/h 4mph /  6.4km/h 95% 0.09in /  2.29mm 46 W/m2
09:04 56.1 °F /  13.4 °C 54.7 °F /  12.6 °C 29.54in /  1000.2hPa East 2.1mph /  3.4km/h 6mph /  9.7km/h 95% 0.09in /  2.29mm 56 W/m2
09:09 56.1 °F /  13.4 °C 54.7 °F /  12.6 °C 29.55in /  1000.6hPa NE 3.4mph /  5.5km/h 8mph /  12.9km/h 95% 0.09in /  2.29mm 53 W/m2
09:14 56.1 °F /  13.4 °C 54.7 °F /  12.6 °C 29.56in /  1000.9hPa ESE 3.7mph /  6km/h 9mph /  14.5km/h 95% 0.09in /  2.29mm 42 W/m2
09:19 56.1 °F /  13.4 °C 54.7 °F /  12.6 °C 29.56in /  1000.9hPa ESE 5mph /  8km/h 14mph /  22.5km/h 95% 0.08in /  2.03mm 19 W/m2
09:24 56.1 °F /  13.4 °C 54.7 °F /  12.6 °C 29.57in /  1001.2hPa ESE 8.4mph /  13.5km/h 14mph /  22.5km/h 95% 0.08in /  2.03mm 18 W/m2
09:29 55.9 °F /  13.3 °C 54.5 °F /  12.5 °C 29.57in /  1001.2hPa ESE 7.2mph /  11.6km/h 12mph /  19.3km/h 95% 0.08in /  2.03mm 25 W/m2
09:34 55.8 °F /  13.2 °C 54.3 °F /  12.4 °C 29.57in /  1001.2hPa ENE 7.2mph /  11.6km/h 14mph /  22.5km/h 95% 0.07in /  1.78mm 25 W/m2
09:39 55.8 °F /  13.2 °C 54.3 °F /  12.4 °C 29.55in /  1000.6hPa East 8mph /  12.9km/h 14mph /  22.5km/h 95% 0.07in /  1.78mm 30 W/m2
09:44 55.6 °F /  13.1 °C 54.1 °F /  12.3 °C 29.54in /  1000.2hPa NE 8.6mph /  13.8km/h 14mph /  22.5km/h 95% 0.07in /  1.78mm 32 W/m2
09:49 55.6 °F /  13.1 °C 54.1 °F /  12.3 °C 29.53in /  999.9hPa ENE 7.4mph /  11.9km/h 14mph /  22.5km/h 95% 0.06in /  1.52mm 49 W/m2
09:54 55.6 °F /  13.1 °C 54.1 °F /  12.3 °C 29.53in /  999.9hPa ENE 5.4mph /  8.7km/h 13mph /  20.9km/h 95% 0.06in /  1.52mm 100 W/m2
09:59 55.6 °F /  13.1 °C 54.1 °F /  12.3 °C 29.53in /  999.9hPa ENE 5.6mph /  9km/h 13mph /  20.9km/h 95% 0.06in /  1.52mm 113 W/m2
10:04 55.8 °F /  13.2 °C 54.4 °F /  12.4 °C 29.52in /  999.5hPa NE 5.1mph /  8.2km/h 13mph /  20.9km/h 95.2% 0.06in /  1.52mm 287 W/m2
10:09 56.6 °F /  13.7 °C 55.3 °F /  12.9 °C 29.53in /  999.9hPa ESE 5mph /  8km/h 10mph /  16.1km/h 95.6% 0.06in /  1.52mm 299 W/m2
10:14 56.9 °F /  13.8 °C 55.8 °F /  13.2 °C 29.54in /  1000.2hPa SE 3.6mph /  5.8km/h 8mph /  12.9km/h 95.8% 0.06in /  1.52mm 265 W/m2
10:19 57.3 °F /  14.1 °C 56.1 °F /  13.4 °C 29.54in /  1000.2hPa South 1.9mph /  3.1km/h 6mph /  9.7km/h 95.6% 0.06in /  1.52mm 227 W/m2
10:24 58.2 °F /  14.6 °C 57 °F /  13.9 °C 29.54in /  1000.2hPa East 2mph /  3.2km/h 5mph /  8km/h 95.8% 0.06in /  1.52mm 223 W/m2
10:29 59.5 °F /  15.3 °C 58.4 °F /  14.7 °C 29.54in /  1000.2hPa ESE 4mph /  6.4km/h 7mph /  11.3km/h 96% 0.06in /  1.52mm 232 W/m2
10:34 59.4 °F /  15.2 °C 58 °F /  14.4 °C 29.54in /  1000.2hPa SE 3.5mph /  5.6km/h 7mph /  11.3km/h 95.4% 0.06in /  1.52mm 243 W/m2
10:39 59.4 °F /  15.2 °C 57.9 °F /  14.4 °C 29.54in /  1000.2hPa ESE 3.2mph /  5.1km/h 7mph /  11.3km/h 95% 0.06in /  1.52mm 258 W/m2
10:44 59.7 °F /  15.4 °C 58.3 °F /  14.6 °C 29.54in /  1000.2hPa East 3.7mph /  6km/h 8mph /  12.9km/h 95% 0.06in /  1.52mm 100 W/m2
10:49 60.3 °F /  15.7 °C 58.8 °F /  14.9 °C 29.54in /  1000.2hPa ESE 4.4mph /  7.1km/h 8mph /  12.9km/h 95% 0.06in /  1.52mm 185 W/m2
10:54 60.3 °F /  15.7 °C 58.8 °F /  14.9 °C 29.54in /  1000.2hPa SE 4.1mph /  6.6km/h 9mph /  14.5km/h 95% 0.06in /  1.52mm 278 W/m2
10:59 60.2 °F /  15.7 °C 58.7 °F /  14.8 °C 29.54in /  1000.2hPa SE 4.1mph /  6.6km/h 9mph /  14.5km/h 95% 0.06in /  1.52mm 285 W/m2
11:04 60.2 °F /  15.7 °C 58.5 °F /  14.7 °C 29.54in /  1000.2hPa SE 5.2mph /  8.4km/h 9mph /  14.5km/h 94.4% 0.05in /  1.27mm 294 W/m2
11:09 60.5 °F /  15.8 °C 58.7 °F /  14.8 °C 29.54in /  1000.2hPa SSE 2.3mph /  3.7km/h 9mph /  14.5km/h 94% 0.06in /  1.52mm 301 W/m2
11:14 60.4 °F /  15.8 °C 58.6 °F /  14.8 °C 29.54in /  1000.2hPa SE 7mph /  11.3km/h 10mph /  16.1km/h 93.8% 0.05in /  1.27mm 323 W/m2
11:19 60.4 °F /  15.8 °C 58.5 °F /  14.7 °C 29.54in /  1000.2hPa SSE 5.6mph /  9km/h 10mph /  16.1km/h 93% 0.06in /  1.52mm 330 W/m2
11:24 60.5 °F /  15.8 °C 58.3 °F /  14.6 °C 29.54in /  1000.2hPa SSE 6.6mph /  10.6km/h 11mph /  17.7km/h 92.2% 0.05in /  1.27mm 346 W/m2
11:29 60.6 °F /  15.9 °C 58.1 °F /  14.5 °C 29.54in /  1000.2hPa SE 5.2mph /  8.4km/h 11mph /  17.7km/h 91.4% 0.05in /  1.27mm 348 W/m2
11:34 61 °F /  16.1 °C 58.3 °F /  14.6 °C 29.54in /  1000.2hPa SE 6.1mph /  9.8km/h 12mph /  19.3km/h 91% 0.05in /  1.27mm 385 W/m2
11:39 61.1 °F /  16.2 °C 58.2 °F /  14.6 °C 29.54in /  1000.2hPa SE 4.4mph /  7.1km/h 12mph /  19.3km/h 90% 0.05in /  1.27mm 461 W/m2
11:44 61 °F /  16.1 °C 57.7 °F /  14.3 °C 29.54in /  1000.2hPa SSE 8.8mph /  14.2km/h 17mph /  27.4km/h 88.8% 0.05in /  1.27mm 408 W/m2
11:49 60.8 °F /  16 °C 56.9 °F /  13.8 °C 29.54in /  1000.2hPa SSE 4.9mph /  7.9km/h 14mph /  22.5km/h 87.2% 0.05in /  1.27mm 229 W/m2
11:54 61.1 °F /  16.2 °C 57.1 °F /  13.9 °C 29.54in /  1000.2hPa SE 5.7mph /  9.2km/h 17mph /  27.4km/h 86.6% 0.05in /  1.27mm 241 W/m2
11:59 61.5 °F /  16.4 °C 57.2 °F /  14 °C 29.54in /  1000.2hPa SSE 6.5mph /  10.5km/h 15mph /  24.1km/h 85.6% 0.05in /  1.27mm 492 W/m2
12:04 61.8 °F /  16.6 °C 57.1 °F /  13.9 °C 29.53in /  999.9hPa SSE 9.4mph /  15.1km/h 14mph /  22.5km/h 84.6% 0.04in /  1.02mm 408 W/m2
12:09 61.9 °F /  16.6 °C 56.8 °F /  13.8 °C 29.53in /  999.9hPa SSE 7.1mph /  11.4km/h 13mph /  20.9km/h 83.4% 0.04in /  1.02mm 378 W/m2
12:14 62.2 °F /  16.8 °C 56.9 °F /  13.8 °C 29.53in /  999.9hPa SE 4.1mph /  6.6km/h 10mph /  16.1km/h 83% 0.04in /  1.02mm 373 W/m2
12:19 62.4 °F /  16.9 °C 56.9 °F /  13.8 °C 29.53in /  999.9hPa SSE 6mph /  9.7km/h 10mph /  16.1km/h 82.2% 0.04in /  1.02mm 374 W/m2
12:24 62.4 °F /  16.9 °C 56.7 °F /  13.7 °C 29.53in /  999.9hPa SSE 5.6mph /  9km/h 10mph /  16.1km/h 81.6% 0.04in /  1.02mm 367 W/m2
12:29 62.5 °F /  16.9 °C 56.5 °F /  13.6 °C 29.52in /  999.5hPa SSE 6.8mph /  10.9km/h 11mph /  17.7km/h 80.6% 0.04in /  1.02mm 381 W/m2
12:34 62.7 °F /  17.1 °C 56.5 °F /  13.6 °C 29.52in /  999.5hPa SSE 3.2mph /  5.1km/h 11mph /  17.7km/h 80.4% 0.03in /  0.76mm 367 W/m2
12:39 63 °F /  17.2 °C 56.8 °F /  13.8 °C 29.52in /  999.5hPa South 3.7mph /  6km/h 10mph /  16.1km/h 80.2% 0.04in /  1.02mm 403 W/m2
12:44 63.1 °F /  17.3 °C 56.8 °F /  13.8 °C 29.52in /  999.5hPa South 3.2mph /  5.1km/h 9mph /  14.5km/h 80% 0.04in /  1.02mm 439 W/m2
12:49 63.4 °F /  17.4 °C 57.1 °F /  13.9 °C 29.51in /  999.2hPa SSE 3.3mph /  5.3km/h 7mph /  11.3km/h 80% 0.03in /  0.76mm 448 W/m2
12:54 63.9 °F /  17.7 °C 57.2 °F /  14 °C 29.51in /  999.2hPa SSE 3.2mph /  5.1km/h 7mph /  11.3km/h 79% 0.04in /  1.02mm 415 W/m2
12:59 63.3 °F /  17.4 °C 56.2 °F /  13.4 °C 29.50in /  998.9hPa SSE 3.6mph /  5.8km/h 7mph /  11.3km/h 78% 0.03in /  0.76mm 109 W/m2
13:04 62.5 °F /  16.9 °C 55.7 °F /  13.2 °C 29.50in /  998.9hPa SSE 3.7mph /  6km/h 8mph /  12.9km/h 78.5% 0.03in /  0.76mm 144 W/m2
13:09 62.2 °F /  16.8 °C 55.6 °F /  13.1 °C 29.50in /  998.9hPa SE 3.8mph /  6.1km/h 8mph /  12.9km/h 79% 0.04in /  1.02mm 190 W/m2
13:14 62.4 °F /  16.9 °C 55.9 °F /  13.3 °C 29.49in /  998.5hPa South 4.8mph /  7.7km/h 10mph /  16.1km/h 79.4% 0.03in /  0.76mm 258 W/m2
13:19 62.3 °F /  16.8 °C 55.7 °F /  13.2 °C 29.49in /  998.5hPa SSE 4.7mph /  7.6km/h 10mph /  16.1km/h 79% 0.03in /  0.76mm 248 W/m2
13:24 62.4 °F /  16.9 °C 55.7 °F /  13.2 °C 29.49in /  998.5hPa SSE 7.2mph /  11.6km/h 12mph /  19.3km/h 78.6% 0.02in /  0.51mm 585 W/m2
13:29 63.1 °F /  17.3 °C 55.9 °F /  13.3 °C 29.49in /  998.5hPa SSE 6.2mph /  10km/h 13mph /  20.9km/h 77.6% 0.03in /  0.76mm 348 W/m2
13:34 63.1 °F /  17.3 °C 55.5 °F /  13.1 °C 29.49in /  998.5hPa South 6.2mph /  10km/h 10mph /  16.1km/h 76.2% 0.03in /  0.76mm 309 W/m2
13:39 63.3 °F /  17.4 °C 55.7 °F /  13.2 °C 29.49in /  998.5hPa SSE 5.5mph /  8.9km/h 10mph /  16.1km/h 76.6% 0.02in /  0.51mm 554 W/m2
13:44 63.2 °F /  17.3 °C 55.7 °F /  13.2 °C 29.48in /  998.2hPa SE 6.6mph /  10.6km/h 13mph /  20.9km/h 76.6% 0.02in /  0.51mm 554 W/m2
13:49 63 °F /  17.2 °C 55.1 °F /  12.8 °C 29.48in /  998.2hPa SSE 6.4mph /  10.3km/h 13mph /  20.9km/h 75.4% 0.03in /  0.76mm 248 W/m2
13:54 63 °F /  17.2 °C 55.1 °F /  12.8 °C 29.47in /  997.9hPa South 6mph /  9.7km/h 9mph /  14.5km/h 75.8% 0.02in /  0.51mm 454 W/m2
13:59 63.3 °F /  17.4 °C 55.3 °F /  12.9 °C 29.47in /  997.9hPa South 5.1mph /  8.2km/h 10mph /  16.1km/h 75.2% 0.02in /  0.51mm 452 W/m2
14:04 63.6 °F /  17.6 °C 55.5 °F /  13.1 °C 29.47in /  997.9hPa SE 5.3mph /  8.5km/h 10mph /  16.1km/h 75% 0.02in /  0.51mm 469 W/m2
14:09 63.5 °F /  17.5 °C 55.3 °F /  12.9 °C 29.47in /  997.9hPa SE 7.6mph /  12.2km/h 12mph /  19.3km/h 74.8% 0.02in /  0.51mm 506 W/m2
14:14 63.7 °F /  17.6 °C 55.6 °F /  13.1 °C 29.46in /  997.5hPa SSE 2.5mph /  4km/h 10mph /  16.1km/h 75% 0.02in /  0.51mm 454 W/m2
14:19 64.3 °F /  17.9 °C 56.1 °F /  13.4 °C 29.46in /  997.5hPa SSE 3.2mph /  5.1km/h 8mph /  12.9km/h 74.8% 0.02in /  0.51mm 471 W/m2
14:24 65.1 °F /  18.4 °C 56.4 °F /  13.6 °C 29.46in /  997.5hPa South 3.2mph /  5.1km/h 5mph /  8km/h 73.4% 0.02in /  0.51mm 519 W/m2
14:29 65.5 °F /  18.6 °C 56.3 °F /  13.5 °C 29.46in /  997.5hPa SSE 3.1mph /  5km/h 7mph /  11.3km/h 72.2% 0.02in /  0.51mm 540 W/m2
14:34 64.6 °F /  18.1 °C 55.4 °F /  13 °C 29.45in /  997.2hPa SE 5.1mph /  8.2km/h 13mph /  20.9km/h 72% 0.02in /  0.51mm 533 W/m2
14:39 64 °F /  17.8 °C 55.2 °F /  12.9 °C 29.45in /  997.2hPa SSE 4.8mph /  7.7km/h 10mph /  16.1km/h 73% 0.02in /  0.51mm 455 W/m2
14:44 64.2 °F /  17.9 °C 55.4 °F /  13 °C 29.45in /  997.2hPa SSE 5.2mph /  8.4km/h 11mph /  17.7km/h 73% 0.02in /  0.51mm 436 W/m2
14:49 63.9 °F /  17.7 °C 55.1 °F /  12.8 °C 29.45in /  997.2hPa SSE 5.8mph /  9.3km/h 10mph /  16.1km/h 73% 0.02in /  0.51mm 200 W/m2
14:54 63.7 °F /  17.6 °C 54.9 °F /  12.7 °C 29.45in /  997.2hPa SSE 5.5mph /  8.9km/h 11mph /  17.7km/h 73% 0.02in /  0.51mm 163 W/m2
14:59 63.3 °F /  17.4 °C 54.7 °F /  12.6 °C 29.44in /  996.8hPa South 4.6mph /  7.4km/h 8mph /  12.9km/h 73.4% 0.02in /  0.51mm 135 W/m2
15:04 63.3 °F /  17.4 °C 54.8 °F /  12.7 °C 29.44in /  996.8hPa SSE 3mph /  4.8km/h 7mph /  11.3km/h 73.8% 0.02in /  0.51mm 128 W/m2
15:09 63.2 °F /  17.3 °C 54.5 °F /  12.5 °C 29.44in /  996.8hPa SSE 4.7mph /  7.6km/h 9mph /  14.5km/h 73.2% 0.02in /  0.51mm 116 W/m2
15:14 63 °F /  17.2 °C 54.2 °F /  12.3 °C 29.45in /  997.2hPa SSE 4.7mph /  7.6km/h 10mph /  16.1km/h 73.2% 0.02in /  0.51mm 77 W/m2
15:19 62.9 °F /  17.2 °C 54.5 °F /  12.5 °C 29.45in /  997.2hPa SSE 4.9mph /  7.9km/h 9mph /  14.5km/h 74.2% 0.02in /  0.51mm 46 W/m2
15:24 62.8 °F /  17.1 °C 54.7 °F /  12.6 °C 29.45in /  997.2hPa SSE 4.1mph /  6.6km/h 8mph /  12.9km/h 75% 0.02in /  0.51mm 49 W/m2
15:29 62.6 °F /  17 °C 54.5 °F /  12.5 °C 29.44in /  996.8hPa SSE 3.9mph /  6.3km/h 9mph /  14.5km/h 75% 0.02in /  0.51mm 81 W/m2
15:34 62.4 °F /  16.9 °C 54.7 °F /  12.6 °C 29.44in /  996.8hPa SSE 3.4mph /  5.5km/h 7mph /  11.3km/h 76% 0.02in /  0.51mm 95 W/m2
15:39 62.1 °F /  16.7 °C 54.8 °F /  12.7 °C 29.43in /  996.5hPa SSE 2.1mph /  3.4km/h 6mph /  9.7km/h 77% 0.02in /  0.51mm 88 W/m2
15:44 61.9 °F /  16.6 °C 54.9 °F /  12.7 °C 29.43in /  996.5hPa SE 1.7mph /  2.7km/h 6mph /  9.7km/h 78% 0.02in /  0.51mm 69 W/m2
15:49 61.9 °F /  16.6 °C 55.2 °F /  12.9 °C 29.43in /  996.5hPa SE 1.3mph /  2.1km/h 4mph /  6.4km/h 79.2% 0.01in /  0.25mm 44 W/m2
15:54 61.6 °F /  16.4 °C 55.3 °F /  12.9 °C 29.43in /  996.5hPa SSE 3.5mph /  5.6km/h 6mph /  9.7km/h 80% 0.01in /  0.25mm 30 W/m2
15:59 61.3 °F /  16.3 °C 55.4 °F /  13 °C 29.43in /  996.5hPa SSE 2.7mph /  4.3km/h 7mph /  11.3km/h 81% 0.02in /  0.51mm 26 W/m2
16:04 60.9 °F /  16.1 °C 55 °F /  12.8 °C 29.43in /  996.5hPa SSE 2.5mph /  4km/h 7mph /  11.3km/h 81% 0.02in /  0.51mm 28 W/m2
16:09 60.7 °F /  15.9 °C 55 °F /  12.8 °C 29.43in /  996.5hPa SE 0.9mph /  1.4km/h 5mph /  8km/h 81.8% 0.02in /  0.51mm 30 W/m2
16:14 60.9 °F /  16.1 °C 55.6 °F /  13.1 °C 29.43in /  996.5hPa Calm   1mph /  1.6km/h 82.8% 0.02in /  0.51mm 33 W/m2
16:19 61 °F /  16.1 °C 55.9 °F /  13.3 °C 29.42in /  996.2hPa Calm     83.4% 0.02in /  0.51mm 40 W/m2
16:24 61 °F /  16.1 °C 56.2 °F /  13.4 °C 29.42in /  996.2hPa SE 0.2mph /  0.3km/h 2mph /  3.2km/h 84.2% 0.01in /  0.25mm 37 W/m2
16:29 61 °F /  16.1 °C 56.5 °F /  13.6 °C 29.42in /  996.2hPa SE 0.4mph /  0.6km/h 2mph /  3.2km/h 85% 0.01in /  0.25mm 35 W/m2
16:34 60.8 °F /  16 °C 56.3 °F /  13.5 °C 29.42in /  996.2hPa SE 0.9mph /  1.4km/h 3mph /  4.8km/h 85% 0.01in /  0.25mm 19 W/m2
16:39 60.5 °F /  15.8 °C 56.3 °F /  13.5 °C 29.42in /  996.2hPa SE 0.9mph /  1.4km/h 2mph /  3.2km/h 85.8% 0.01in /  0.25mm 16 W/m2
16:44 60.2 °F /  15.7 °C 56 °F /  13.3 °C 29.41in /  995.8hPa SE 0.5mph /  0.8km/h 2mph /  3.2km/h 86% 0.01in /  0.25mm 18 W/m2
16:49 59.9 °F /  15.5 °C 55.8 °F /  13.2 °C 29.41in /  995.8hPa Calm   1mph /  1.6km/h 86.6% 0.02in /  0.51mm 14 W/m2
16:54 59.7 °F /  15.4 °C 55.8 °F /  13.2 °C 29.41in /  995.8hPa Calm     87% 0.02in /  0.51mm 7 W/m2
16:59 59.5 °F /  15.3 °C 55.6 °F /  13.1 °C 29.41in /  995.8hPa Calm     87% 0.02in /  0.51mm 5 W/m2
17:04 59.4 °F /  15.2 °C 55.7 °F /  13.2 °C 29.40in /  995.5hPa Calm     87.8% 0.01in /  0.25mm 0 W/m2
17:09 59.4 °F /  15.2 °C 55.8 °F /  13.2 °C 29.40in /  995.5hPa Calm     88% 0.01in /  0.25mm 0 W/m2
17:14 59.4 °F /  15.2 °C 55.9 °F /  13.3 °C 29.40in /  995.5hPa Calm     88.2% 0.01in /  0.25mm 0 W/m2
17:19 59.4 °F /  15.2 °C 56 °F /  13.3 °C 29.40in /  995.5hPa Calm     88.6% 0.01in /  0.25mm 0 W/m2
17:24 59.4 °F /  15.2 °C 56.1 °F /  13.4 °C 29.40in /  995.5hPa SE 0.2mph /  0.3km/h 1mph /  1.6km/h 89% 0.01in /  0.25mm 0 W/m2
17:29 59.4 °F /  15.2 °C 56.1 °F /  13.4 °C 29.40in /  995.5hPa SE 0.4mph /  0.6km/h 1mph /  1.6km/h 89% 0.01in /  0.25mm 0 W/m2
17:34 59.3 °F /  15.2 °C 56 °F /  13.3 °C 29.40in /  995.5hPa Calm     89% 0.01in /  0.25mm 0 W/m2
17:39 59.2 °F /  15.1 °C 56.1 °F /  13.4 °C 29.40in /  995.5hPa SE 1.2mph /  1.9km/h 2mph /  3.2km/h 89.6% 0.02in /  0.51mm 0 W/m2
17:44 59 °F /  15 °C 56.1 °F /  13.4 °C 29.40in /  995.5hPa SE 2.1mph /  3.4km/h 4mph /  6.4km/h 90% 0.02in /  0.51mm 0 W/m2
17:49 58.6 °F /  14.8 °C 55.8 °F /  13.2 °C 29.39in /  995.1hPa NNE 3.1mph /  5km/h 6mph /  9.7km/h 90% 0.02in /  0.51mm 0 W/m2
17:54 58.5 °F /  14.7 °C 55.6 °F /  13.1 °C 29.38in /  994.8hPa NNE 1.8mph /  2.9km/h 5mph /  8km/h 90.4% 0.01in /  0.25mm 0 W/m2
17:59 58.1 °F /  14.5 °C 55.4 °F /  13 °C 29.39in /  995.1hPa SE 1.3mph /  2.1km/h 5mph /  8km/h 90.6% 0.01in /  0.25mm 7 W/m2
18:04 57.8 °F /  14.3 °C 55.2 °F /  12.9 °C 29.39in /  995.1hPa NE 2.4mph /  3.9km/h 5mph /  8km/h 91% 0.01in /  0.25mm 5 W/m2
18:09 57.6 °F /  14.2 °C 55 °F /  12.8 °C 29.39in /  995.1hPa ENE 1.2mph /  1.9km/h 3mph /  4.8km/h 91% 0.01in /  0.25mm 0 W/m2
18:14 57.4 °F /  14.1 °C 54.9 °F /  12.7 °C 29.39in /  995.1hPa East 0.9mph /  1.4km/h 3mph /  4.8km/h 91% 0.01in /  0.25mm 0 W/m2
18:19 57.3 °F /  14.1 °C 54.8 °F /  12.7 °C 29.39in /  995.1hPa East 2.4mph /  3.9km/h 3mph /  4.8km/h 91% 0.01in /  0.25mm 0 W/m2
18:24 57.4 °F /  14.1 °C 54.9 °F /  12.7 °C 29.40in /  995.5hPa East 1.3mph /  2.1km/h 3mph /  4.8km/h 91% 0.02in /  0.51mm 0 W/m2
18:29 57.3 °F /  14.1 °C 54.9 °F /  12.7 °C 29.40in /  995.5hPa ESE 2.4mph /  3.9km/h 6mph /  9.7km/h 91.8% 0.02in /  0.51mm 0 W/m2
18:34 56.9 °F /  13.8 °C 54.6 °F /  12.6 °C 29.40in /  995.5hPa SE 2.2mph /  3.5km/h 6mph /  9.7km/h 91.8% 0.02in /  0.51mm 0 W/m2
18:39 56.8 °F /  13.8 °C 54.5 °F /  12.5 °C 29.40in /  995.5hPa SE 2.4mph /  3.9km/h 5mph /  8km/h 92% 0.02in /  0.51mm 0 W/m2
18:44 56.7 °F /  13.7 °C 54.3 °F /  12.4 °C 29.40in /  995.5hPa SE 1.7mph /  2.7km/h 4mph /  6.4km/h 92% 0.01in /  0.25mm 0 W/m2
18:49 56.7 °F /  13.7 °C 54.3 °F /  12.4 °C 29.40in /  995.5hPa ESE 2.8mph /  4.5km/h 7mph /  11.3km/h 92% 0.01in /  0.25mm 0 W/m2
18:54 56.5 °F /  13.6 °C 54.1 °F /  12.3 °C 29.40in /  995.5hPa East 1.9mph /  3.1km/h 5mph /  8km/h 92% 0.01in /  0.25mm 0 W/m2
18:59 56.2 °F /  13.4 °C 53.9 °F /  12.2 °C 29.41in /  995.8hPa ESE 2.1mph /  3.4km/h 4mph /  6.4km/h 92% 0.01in /  0.25mm 0 W/m2
19:04 55.9 °F /  13.3 °C 53.6 °F /  12 °C 29.41in /  995.8hPa ESE 2mph /  3.2km/h 3mph /  4.8km/h 92% 0.01in /  0.25mm 0 W/m2
19:09 55.8 °F /  13.2 °C 53.5 °F /  11.9 °C 29.40in /  995.5hPa ESE 1.6mph /  2.6km/h 3mph /  4.8km/h 92% 0.02in /  0.51mm 0 W/m2
19:14 55.8 °F /  13.2 °C 53.4 °F /  11.9 °C 29.40in /  995.5hPa ESE 1.6mph /  2.6km/h 4mph /  6.4km/h 92% 0.02in /  0.51mm 0 W/m2
19:19 55.7 °F /  13.2 °C 53.3 °F /  11.8 °C 29.40in /  995.5hPa ESE 2.1mph /  3.4km/h 4mph /  6.4km/h 92% 0.02in /  0.51mm 0 W/m2
19:24 55.6 °F /  13.1 °C 53.2 °F /  11.8 °C 29.40in /  995.5hPa ESE 3mph /  4.8km/h 7mph /  11.3km/h 92% 0.02in /  0.51mm 0 W/m2
19:29 55.6 °F /  13.1 °C 53.4 °F /  11.9 °C 29.40in /  995.5hPa ESE 2.9mph /  4.7km/h 5mph /  8km/h 92.4% 0.01in /  0.25mm 0 W/m2
19:34 55.6 °F /  13.1 °C 53.6 °F /  12 °C 29.40in /  995.5hPa ESE 1.9mph /  3.1km/h 7mph /  11.3km/h 93% 0.01in /  0.25mm 0 W/m2
19:39 55.4 °F /  13 °C 53.4 °F /  11.9 °C 29.40in /  995.5hPa East 1.3mph /  2.1km/h 4mph /  6.4km/h 93% 0.01in /  0.25mm 0 W/m2
19:44 55.2 °F /  12.9 °C 53.2 °F /  11.8 °C 29.40in /  995.5hPa ESE 2.4mph /  3.9km/h 5mph /  8km/h 93% 0.01in /  0.25mm 0 W/m2
19:49 55.1 °F /  12.8 °C 53.2 °F /  11.8 °C 29.39in /  995.1hPa ESE 2.1mph /  3.4km/h 4mph /  6.4km/h 93% 0.01in /  0.25mm 0 W/m2
19:54 55 °F /  12.8 °C 53.1 °F /  11.7 °C 29.39in /  995.1hPa East 2.3mph /  3.7km/h 5mph /  8km/h 93% 0.01in /  0.25mm 0 W/m2
19:59 54.9 °F /  12.7 °C 52.9 °F /  11.6 °C 29.39in /  995.1hPa East 1.9mph /  3.1km/h 3mph /  4.8km/h 93% 0.02in /  0.51mm 0 W/m2
20:04 54.8 °F /  12.7 °C 52.8 °F /  11.6 °C 29.39in /  995.1hPa East 2.2mph /  3.5km/h 6mph /  9.7km/h 93% 0.02in /  0.51mm 0 W/m2
20:09 54.7 °F /  12.6 °C 52.7 °F /  11.5 °C 29.39in /  995.1hPa East 2.4mph /  3.9km/h 5mph /  8km/h 93% 0.02in /  0.51mm 0 W/m2
20:14 54.6 °F /  12.6 °C 52.6 °F /  11.4 °C 29.39in /  995.1hPa ESE 2.4mph /  3.9km/h 7mph /  11.3km/h 93% 0.01in /  0.25mm 0 W/m2
20:19 54.4 °F /  12.4 °C 52.4 °F /  11.3 °C 29.38in /  994.8hPa ESE 2.8mph /  4.5km/h 4mph /  6.4km/h 93% 0.01in /  0.25mm 0 W/m2
20:24 54.3 °F /  12.4 °C 52.3 °F /  11.3 °C 29.38in /  994.8hPa ESE 2.4mph /  3.9km/h 5mph /  8km/h 93% 0.01in /  0.25mm 0 W/m2
20:29 54.1 °F /  12.3 °C 52.2 °F /  11.2 °C 29.38in /  994.8hPa ESE 2.4mph /  3.9km/h 7mph /  11.3km/h 93% 0.01in /  0.25mm 0 W/m2
20:34 54 °F /  12.2 °C 52.1 °F /  11.2 °C 29.38in /  994.8hPa ESE 2.5mph /  4km/h 7mph /  11.3km/h 93% 0.01in /  0.25mm 0 W/m2
20:39 54 °F /  12.2 °C 52 °F /  11.1 °C 29.37in /  994.5hPa ESE 3.2mph /  5.1km/h 7mph /  11.3km/h 93% 0.01in /  0.25mm 0 W/m2
20:44 54 °F /  12.2 °C 52 °F /  11.1 °C 29.37in /  994.5hPa ESE 2.8mph /  4.5km/h 5mph /  8km/h 93% 0.01in /  0.25mm 0 W/m2
20:49 54 °F /  12.2 °C 52 °F /  11.1 °C 29.37in /  994.5hPa East 3.1mph /  5km/h 6mph /  9.7km/h 93% 0.02in /  0.51mm 0 W/m2
20:54 54 °F /  12.2 °C 52 °F /  11.1 °C 29.37in /  994.5hPa East 2.8mph /  4.5km/h 6mph /  9.7km/h 93% 0.02in /  0.51mm 0 W/m2
20:59 54 °F /  12.2 °C 52.2 °F /  11.2 °C 29.37in /  994.5hPa East 2.9mph /  4.7km/h 6mph /  9.7km/h 93.8% 0.01in /  0.25mm 0 W/m2
21:04 54 °F /  12.2 °C 52.2 °F /  11.2 °C 29.37in /  994.5hPa ESE 2.2mph /  3.5km/h 5mph /  8km/h 93.8% 0.01in /  0.25mm 0 W/m2
21:09 54 °F /  12.2 °C 52.2 °F /  11.2 °C 29.37in /  994.5hPa ESE 0.4mph /  0.6km/h 3mph /  4.8km/h 93.6% 0.01in /  0.25mm 0 W/m2
21:14 54 °F /  12.2 °C 52.3 °F /  11.3 °C 29.37in /  994.5hPa Calm   1mph /  1.6km/h 94% 0.01in /  0.25mm 0 W/m2
21:19 54 °F /  12.2 °C 52.3 °F /  11.3 °C 29.37in /  994.5hPa ESE 0.2mph /  0.3km/h 1mph /  1.6km/h 94% 0.01in /  0.25mm 0 W/m2
21:24 54 °F /  12.2 °C 52.3 °F /  11.3 °C 29.36in /  994.1hPa ESE 0.6mph /  1km/h 2mph /  3.2km/h 94% 0.01in /  0.25mm 0 W/m2
21:29 54 °F /  12.2 °C 52.3 °F /  11.3 °C 29.36in /  994.1hPa ESE 0.8mph /  1.3km/h 2mph /  3.2km/h 94% 0.01in /  0.25mm 0 W/m2
21:34 54 °F /  12.2 °C 52.3 °F /  11.3 °C 29.36in /  994.1hPa Calm   2mph /  3.2km/h 94% 0.02in /  0.51mm 0 W/m2
21:39 53.8 °F /  12.1 °C 52.2 °F /  11.2 °C 29.36in /  994.1hPa Calm     94% 0.02in /  0.51mm 0 W/m2
21:44 53.8 °F /  12.1 °C 52.2 °F /  11.2 °C 29.36in /  994.1hPa Calm     94% 0.02in /  0.51mm 0 W/m2
21:49 53.7 °F /  12.1 °C 52.1 °F /  11.2 °C 29.36in /  994.1hPa ESE 0.8mph /  1.3km/h 3mph /  4.8km/h 94% 0.02in /  0.51mm 0 W/m2
21:54 53.6 °F /  12 °C 52 °F /  11.1 °C 29.36in /  994.1hPa ESE 0.4mph /  0.6km/h 3mph /  4.8km/h 94% 0.01in /  0.25mm 0 W/m2
21:59 53.6 °F /  12 °C 52 °F /  11.1 °C 29.36in /  994.1hPa Calm   1mph /  1.6km/h 94% 0.01in /  0.25mm 0 W/m2
22:04 53.5 °F /  11.9 °C 51.9 °F /  11.1 °C 29.35in /  993.8hPa Calm     94% 0.01in /  0.25mm 0 W/m2
22:09 53.4 °F /  11.9 °C 51.8 °F /  11 °C 29.35in /  993.8hPa ESE 1.2mph /  1.9km/h 3mph /  4.8km/h 94% 0.01in /  0.25mm 0 W/m2
22:14 53.6 °F /  12 °C 52 °F /  11.1 °C 29.35in /  993.8hPa ESE 0.2mph /  0.3km/h 2mph /  3.2km/h 94% 0.02in /  0.51mm 0 W/m2
22:19 53.6 °F /  12 °C 52 °F /  11.1 °C 29.35in /  993.8hPa ESE 0.4mph /  0.6km/h 2mph /  3.2km/h 94% 0.02in /  0.51mm 0 W/m2
22:24 53.8 °F /  12.1 °C 52.2 °F /  11.2 °C 29.35in /  993.8hPa ESE 0.8mph /  1.3km/h 4mph /  6.4km/h 94% 0.02in /  0.51mm 0 W/m2
22:29 53.8 °F /  12.1 °C 52.2 °F /  11.2 °C 29.35in /  993.8hPa East 1.5mph /  2.4km/h 5mph /  8km/h 94% 0.02in /  0.51mm 0 W/m2
22:34 53.8 °F /  12.1 °C 52.2 °F /  11.2 °C 29.35in /  993.8hPa NE 2.2mph /  3.5km/h 4mph /  6.4km/h 94% 0.02in /  0.51mm 0 W/m2
22:39 53.8 °F /  12.1 °C 52.2 °F /  11.2 °C 29.34in /  993.5hPa NNE 2.8mph /  4.5km/h 5mph /  8km/h 94% 0.01in /  0.25mm 0 W/m2
22:44 53.8 °F /  12.1 °C 52.2 °F /  11.2 °C 29.34in /  993.5hPa NE 3.9mph /  6.3km/h 10mph /  16.1km/h 94% 0.01in /  0.25mm 0 W/m2
22:49 53.7 °F /  12.1 °C 52.1 °F /  11.2 °C 29.34in /  993.5hPa NE 3.3mph /  5.3km/h 10mph /  16.1km/h 94% 0.01in /  0.25mm 0 W/m2
22:54 53.6 °F /  12 °C 52 °F /  11.1 °C 29.34in /  993.5hPa East 3.4mph /  5.5km/h 8mph /  12.9km/h 94% 0.02in /  0.51mm 0 W/m2
22:59 53.6 °F /  12 °C 52 °F /  11.1 °C 29.34in /  993.5hPa East 1.5mph /  2.4km/h 5mph /  8km/h 94% 0.02in /  0.51mm 0 W/m2
23:04 53.4 °F /  11.9 °C 51.8 °F /  11 °C 29.34in /  993.5hPa East 1.1mph /  1.8km/h 5mph /  8km/h 94% 0.02in /  0.51mm 0 W/m2
23:09 53.4 °F /  11.9 °C 51.8 °F /  11 °C 29.34in /  993.5hPa ESE 0.8mph /  1.3km/h 5mph /  8km/h 94% 0.02in /  0.51mm 0 W/m2
23:14 53.4 °F /  11.9 °C 51.8 °F /  11 °C 29.34in /  993.5hPa ESE 0.8mph /  1.3km/h 2mph /  3.2km/h 94% 0.02in /  0.51mm 0 W/m2
23:19 53.4 °F /  11.9 °C 51.8 °F /  11 °C 29.34in /  993.5hPa East 0.5mph /  0.8km/h 2mph /  3.2km/h 94% 0.01in /  0.25mm 0 W/m2
23:24 53.4 °F /  11.9 °C 51.8 °F /  11 °C 29.34in /  993.5hPa Calm   2mph /  3.2km/h 94% 0.01in /  0.25mm 0 W/m2
23:29 53.4 °F /  11.9 °C 51.8 °F /  11 °C 29.34in /  993.5hPa Calm   1mph /  1.6km/h 94% 0.01in /  0.25mm 0 W/m2
23:34 53.4 °F /  11.9 °C 51.8 °F /  11 °C 29.34in /  993.5hPa Calm   1mph /  1.6km/h 94% 0.02in /  0.51mm 0 W/m2
23:39 53.3 °F /  11.8 °C 51.7 °F /  10.9 °C 29.34in /  993.5hPa Calm     94% 0.02in /  0.51mm 0 W/m2
23:44 53.2 °F /  11.8 °C 51.6 °F /  10.9 °C 29.34in /  993.5hPa SE 1.8mph /  2.9km/h 5mph /  8km/h 94% 0.02in /  0.51mm 0 W/m2
23:49 53.2 °F /  11.8 °C 51.6 °F /  10.9 °C 29.35in /  993.8hPa West 2.9mph /  4.7km/h 6mph /  9.7km/h 94% 0.02in /  0.51mm 0 W/m2
23:54 53.1 °F /  11.7 °C 51.5 °F /  10.8 °C 29.35in /  993.8hPa West 3.3mph /  5.3km/h 5mph /  8km/h 94% 0.02in /  0.51mm 0 W/m2
23:59 53.1 °F /  11.7 °C 51.4 °F /  10.8 °C 29.35in /  993.8hPa West 1.7mph /  2.7km/h 4mph /  6.4km/h 94% 0.01in /  0.25mm 0 W/m2
Bath Spa Weather
Compliments of Weather Underground - 2 mb